Vernon, IL (62892)

04:42 AM CST del 21 Dicembre 2014 (GMT -0600)
0IL2 - Griffin Airport | Change Station
CLOSE
Current Station
Stazione meteo personale
Location: Alma, IL
Altitudine: 560 ft
Stazioni meteo nelle vicinanze

Alt. 560 ft 38.80 °N, 89.00 °W | Updated 0 second ago

Coperto
Coperto
36.2 °F
Sembra 32 °F
N
5.0
Vento Variabile Vento da SSE
Gusts 10.0 mph

Oggi
Massima -- | Minima -- °F
--% Possibilità di precip.
Ieri
Massima -- | Minima -- °F
Precip. -- in
7:11 AM 4:37 PM
Luna calante, 1% visible
Pressione 30.24 in
Visibilità 10.0 miglia
Nuvole Coperto 2700 ft
Raffreddamento del vento 32 °F
Punto di rugiada 31 °F
Umidità 81%
Piovosità 0.20 in
Spessore del manto nevoso Non disponibile.
Raggi UV 0 fuori da 12
Polline 2.10 fuori da 12
Qualità dell'aria Non disponibile.
Flu Activity Non disponibile.
METAR KSLO 211035Z AUTO 13005KT 10SM OVC027 02/M01 A3024 RMK AO2 T00201012

More Conditions Fewer Conditions

Pressione 30.24 in
Visibilità 10.0 miglia
Nuvole Coperto 2700 ft
Raffreddamento del vento 32 °F
Punto di rugiada 31 °F
Umidità 81%
Piovosità 0.20 in
Spessore del manto nevoso Non disponibile.
Raggi UV 0 fuori da 12
Polline 2.10 fuori da 12
Qualità dell'aria Non disponibile.
Flu Activity Non disponibile.
METAR KSLO 211035Z AUTO 13005KT 10SM OVC027 02/M01 A3024 RMK AO2 T00201012

More Conditions Fewer Conditions

10-Day Weather Forecast

Almanac

Astronomia

Dec. 21, 2014 Alba Tramonto
Ora attuale
Crepuscolo civile
Crepuscolo nautico
Crepuscolo astronomico
Luna
Estensione della luce visibile
Lunghezza del giorno
Tomorrow will be .
, % of the Moon is Illuminated

Gli estremi di oggi

State Highs State Lows

Community

WunderPhotos

Upload Photos

1,779,367 foto caricate!

WunderBlogs® & News

Nearby

Qualità dell'aria

  Qualità dell'aria Indice AQ Inquinante
Not available.

Profondità neve

Stazione Profondità Altitudine

Attività sismica

Città  Distanza Mag. Data & Ora
Minimo Magnitudo Mostrato è 2.5.

Temperature delle acque costiere

Località Temperatura

Stazioni meteo nelle vicinanze